CYZS

Coral Harbour Airport

Coral Harbour, Canada
METAR CYZS 241100Z 27010KT 15SM FEW015 SCT030 OVC080 M00/M00 A2986 RMK SC1SC3AC5 SC TR WND ESTD SLP118
Observed Flight Rules
Sep-24 @ 11:00 UTC (33 minutes ago) Visual Flight Rules
Wind Visibility Clouds
270° at 10 knots 15 miles
  • Few at 1,500' AGL
  • Scattered at 3,000' AGL
  • Overcast at 8,000' AGL
Temperatures Readings
Current 0°C / 32°F
Dewpoint 0°C / 32°F
Humidity 100%
Altimeter 29.86" Hg
Pressure 1011.8 hPa
Elevation 64
METAR CYZS 241100Z 27010KT 15SM FEW015 SCT030 OVC080 M00/M00 A2986 RMK SC1SC3AC5 SC TR WND ESTD SLP118
Observed Flight Rules
Sep-24 @ 11:00 UTC
(33 minutes ago)
VFR
Wind Visibility
270° at 10 knots 15 miles
Clouds
  • Few at 1,500' AGL
  • Scattered at 3,000' AGL
  • Overcast at 8,000' AGL
Temperature Dewpoint
0°C / 32°F 0°C / 32°F
Humidity Altimeter Pressure
100% 29.86" Hg 1011.8 hPa